Time;durP1;ratioP1;P1;durP2;ratioP2;P2;SDS_P1;SDS_P2;PMS_P1;PMS_P2;Temp;Humidity;BMP_temperature;BMP_pressure;BME280_temperature;BME280_humidity;BME280_pressure;Samples;Min_cycle;Max_cycle;Signal;HPM_P1;HPM_P2
2022/12/26 00:01:11;;;;;;;6.22;3.80;;;12.80;91.50;;;11.95;73.84;99960.28;5050565;28;20049;-77
2022/12/26 00:03:38;;;;;;;8.38;4.32;;;12.90;91.70;;;11.93;73.95;99947.16;5062372;28;20066;-77
2022/12/26 00:06:13;;;;;;;6.68;4.10;;;12.90;91.80;;;11.91;73.83;99953.78;5068837;28;20041;-77
2022/12/26 00:08:40;;;;;;;7.22;3.70;;;12.90;91.70;;;11.90;73.98;99962.84;5061784;28;20040;-77
2022/12/26 00:11:07;;;;;;;7.30;4.20;;;12.80;91.60;;;11.93;73.91;99957.84;5048923;28;20497;-77
2022/12/26 00:13:35;;;;;;;8.10;4.30;;;12.80;91.50;;;11.93;74.06;99957.03;5050761;28;20052;-77
2022/12/26 00:16:09;;;;;;;8.25;4.00;;;12.90;91.70;;;11.94;73.95;99956.00;5050079;28;20049;-77
2022/12/26 00:18:36;;;;;;;6.15;3.88;;;12.90;91.60;;;11.91;73.84;99954.63;5050124;28;20048;-77
2022/12/26 00:21:04;;;;;;;6.95;3.88;;;12.90;91.60;;;11.90;74.07;99954.81;5049899;28;20052;-77
2022/12/26 00:23:31;;;;;;;6.30;4.03;;;12.90;91.80;;;11.92;74.49;99947.41;5050535;28;20053;-77
2022/12/26 00:26:03;;;;;;;12.68;5.13;;;12.90;91.70;;;11.90;73.92;99947.63;5062030;28;20051;-77
2022/12/26 00:28:31;;;;;;;6.30;4.32;;;12.90;91.60;;;11.91;74.06;99953.78;5069800;28;20036;-77
2022/12/26 00:30:58;;;;;;;8.88;4.57;;;12.90;91.80;;;11.87;74.20;99952.63;5052407;28;20036;-77
2022/12/26 00:33:26;;;;;;;8.50;4.05;;;12.80;91.80;;;11.91;74.09;99954.63;5063943;28;20091;-77
2022/12/26 00:35:53;;;;;;;8.73;4.95;;;12.90;91.80;;;11.92;73.96;99950.09;5067658;28;20056;-77
2022/12/26 00:38:20;;;;;;;9.13;4.13;;;12.80;91.70;;;11.91;74.12;99957.28;5058777;28;20064;-77
2022/12/26 00:40:48;;;;;;;8.23;4.57;;;12.80;91.80;;;11.93;74.03;99947.16;5045203;28;20114;-77
2022/12/26 00:43:15;;;;;;;7.00;4.45;;;12.80;91.70;;;11.91;74.12;99948.44;5050270;28;20045;-77
2022/12/26 00:45:45;;;;;;;10.50;4.63;;;12.80;91.80;;;11.92;73.95;99945.53;5038890;28;20390;-77
2022/12/26 00:48:12;;;;;;;8.98;4.35;;;12.80;91.60;;;11.90;73.95;99949.47;5066172;28;20045;-77
2022/12/26 00:50:40;;;;;;;9.05;4.57;;;12.80;91.60;;;11.85;74.01;99945.66;5051458;28;20056;-77
2022/12/26 00:53:08;;;;;;;9.45;5.07;;;12.80;91.60;;;11.84;74.10;99948.56;5069709;28;20056;-77
2022/12/26 00:55:35;;;;;;;7.85;4.57;;;12.80;91.60;;;11.77;74.04;99950.50;5069167;28;20049;-77
2022/12/26 00:58:02;;;;;;;7.70;4.00;;;12.80;91.70;;;11.76;74.33;99951.53;5041586;28;20614;-77
2022/12/26 01:00:29;;;;;;;11.65;5.13;;;12.70;91.80;;;11.80;74.17;99969.53;5068395;28;20041;-77
2022/12/26 01:02:56;;;;;;;9.48;5.50;;;12.80;91.80;;;11.84;74.23;99964.59;5052571;28;20508;-77
2022/12/26 01:05:23;;;;;;;10.57;6.60;;;12.80;91.70;;;11.85;74.06;99972.38;5070123;28;20048;-77
2022/12/26 01:07:52;;;;;;;12.48;7.75;;;12.80;91.70;;;11.85;74.02;99959.00;5068281;28;20507;-77
2022/12/26 01:10:19;;;;;;;13.73;8.35;;;12.80;91.60;;;11.83;73.96;99965.63;5068569;28;20051;-77
2022/12/26 01:12:46;;;;;;;13.73;8.05;;;12.80;91.60;;;11.78;74.14;99971.66;5052822;28;20045;-77
2022/12/26 01:15:14;;;;;;;13.75;7.57;;;12.80;91.80;;;11.77;74.19;99974.56;5057359;28;20047;-77
2022/12/26 01:17:41;;;;;;;14.10;7.60;;;12.70;91.80;;;11.77;74.31;99975.38;5061359;28;20128;-77
2022/12/26 01:20:09;;;;;;;13.43;7.53;;;12.70;91.80;;;11.79;73.88;99986.63;5049739;28;20594;-77
2022/12/26 01:22:37;;;;;;;16.45;7.80;;;12.70;91.70;;;11.77;74.06;100001.28;5049396;28;20045;-77
2022/12/26 01:25:07;;;;;;;14.35;6.10;;;12.80;91.80;;;11.77;73.98;99975.38;5068505;28;20052;-77
2022/12/26 01:27:34;;;;;;;8.90;4.57;;;12.70;91.80;;;11.81;73.84;99987.22;5068310;28;20071;-77
2022/12/26 01:30:02;;;;;;;9.35;4.25;;;12.70;91.80;;;11.81;73.92;99987.22;5063738;28;20036;-77
2022/12/26 01:32:29;;;;;;;6.60;3.75;;;12.70;91.70;;;11.81;73.81;99984.56;5062736;28;20505;-77
2022/12/26 01:34:56;;;;;;;6.70;3.95;;;12.70;91.60;;;11.84;73.75;99986.78;5068105;28;20039;-77
2022/12/26 01:37:23;;;;;;;10.02;4.97;;;12.70;91.60;;;11.86;73.48;99997.25;5063036;28;20052;-77
2022/12/26 01:39:51;;;;;;;9.48;4.60;;;12.70;91.60;;;11.88;73.48;99999.69;5066415;28;20044;-77
2022/12/26 01:42:23;;;;;;;7.20;4.18;;;12.80;91.50;;;11.90;73.53;100011.75;5068628;28;20040;-77
2022/12/26 01:45:04;;;;;;;7.40;4.22;;;12.80;91.30;;;11.92;73.45;100003.53;5069365;28;20062;-77
2022/12/26 01:47:42;;;;;;;7.40;4.20;;;12.80;91.40;;;11.91;73.26;100008.06;5068528;28;20048;-77
2022/12/26 01:50:35;;;;;;;6.60;4.15;;;12.80;91.30;;;11.88;73.29;100010.38;5046322;28;20052;-77
2022/12/26 01:53:09;;;;;;;6.10;3.78;;;12.80;91.40;;;11.87;73.59;100008.75;5050073;28;20052;-77
2022/12/26 01:55:38;;;;;;;7.05;4.30;;;12.80;91.30;;;11.83;73.58;100003.84;5068967;28;20071;-77
2022/12/26 01:58:13;;;;;;;6.43;3.83;;;12.80;91.40;;;11.84;73.69;99997.47;5068713;28;20129;-77
2022/12/26 02:00:41;;;;;;;6.00;3.35;;;12.80;91.40;;;11.85;73.82;100003.63;5060884;28;20041;-77
2022/12/26 02:05:57;;;;;;;7.20;4.05;;;12.80;91.20;;;11.83;73.59;99989.69;5055349;28;20128;-77
2022/12/26 02:08:30;;;;;;;7.05;3.72;;;12.80;91.30;;;11.84;73.74;99989.44;5062770;28;20049;-77
2022/12/26 02:11:07;;;;;;;5.90;3.40;;;12.80;91.40;;;11.88;73.63;99991.66;5066516;28;20048;-77
2022/12/26 02:13:38;;;;;;;5.10;3.33;;;12.80;91.40;;;11.87;73.53;99998.88;5069033;28;20059;-77
2022/12/26 02:16:08;;;;;;;6.00;3.70;;;12.80;91.30;;;11.85;73.47;100003.63;5067912;28;20501;-77
2022/12/26 02:18:35;;;;;;;6.07;3.42;;;12.80;91.40;;;11.87;73.55;100022.91;5068017;28;20075;-77
2022/12/26 02:21:29;;;;;;;5.70;3.40;;;12.80;91.20;;;11.87;73.49;100022.91;5062877;28;20037;-77
2022/12/26 02:24:35;;;;;;;6.30;3.42;;;13.00;91.30;;;11.89;73.37;100018.16;5068930;28;20045;-77
2022/12/26 02:27:24;;;;;;;6.15;3.22;;;12.80;91.10;;;11.85;73.50;100017.78;5066486;28;20057;-77
2022/12/26 02:30:42;;;;;;;5.18;3.20;;;12.80;91.10;;;11.85;73.45;100020.47;5064761;28;20052;-77
2022/12/26 02:33:27;;;;;;;4.45;2.92;;;12.80;91.20;;;11.85;73.59;100008.97;5056796;28;20041;-77
2022/12/26 02:36:23;;;;;;;5.88;3.03;;;12.80;91.20;;;11.88;73.43;100018.38;5052333;28;20041;-77
2022/12/26 02:39:06;;;;;;;5.82;3.10;;;12.80;91.10;;;11.83;73.47;100021.75;5065688;28;20066;-77
2022/12/26 02:41:42;;;;;;;4.93;2.97;;;13.10;91.40;;;11.81;73.62;100027.31;5068512;28;20058;-77
2022/12/26 02:47:15;;;;;;;6.65;3.60;;;12.70;91.70;;;11.80;73.65;100043.53;5042880;28;20517;-77
2022/12/26 03:13:12;;;;;;;7.32;4.65;;;12.70;92.00;;;11.70;74.22;100046.78;5071860;28;20046;-78
2022/12/26 03:18:35;;;;;;;6.85;4.60;;;12.70;92.10;;;11.68;74.00;100043.53;5030583;28;20060;-78
2022/12/26 03:21:06;;;;;;;7.85;4.75;;;12.70;92.10;;;11.68;74.10;100046.19;5051460;28;20390;-78
2022/12/26 03:23:36;;;;;;;8.45;4.95;;;12.60;92.00;;;11.70;74.08;100037.94;5051552;28;20059;-78
2022/12/26 03:30:47;;;;;;;8.95;5.90;;;12.70;91.90;;;11.72;74.02;100043.91;5086926;28;20064;-76
2022/12/26 03:31:40;;;;;;;9.98;6.55;;;12.70;91.80;;;11.73;73.86;100043.66;5070791;28;20048;-75
2022/12/26 03:34:17;;;;;;;10.13;6.88;;;12.70;91.80;;;11.75;73.64;100049.56;5070970;28;20094;-76
2022/12/26 03:37:03;;;;;;;11.88;7.97;;;12.70;91.60;;;11.72;73.63;100054.56;5052717;28;20619;-75
2022/12/26 04:20:05;;;;;;;12.27;6.10;;;12.50;90.90;;;11.51;73.03;100064.72;5086668;28;20047;-75
2022/12/26 04:45:13;;;;;;;8.68;5.50;;;12.50;90.40;;;11.57;72.41;100087.06;5087162;28;20527;-75
2022/12/26 04:50:10;;;;;;;7.70;5.60;;;12.50;90.20;;;11.57;72.38;100084.38;5072569;28;20047;-75
2022/12/26 04:50:27;;;;;;;7.88;5.28;;;12.50;90.10;;;11.57;72.44;100081.72;5069207;28;20064;-75
2022/12/26 04:53:00;;;;;;;7.95;5.22;;;12.50;89.90;;;11.57;72.10;100093.22;5068465;28;20515;-76
2022/12/26 04:55:28;;;;;;;6.85;5.05;;;12.50;89.90;;;11.58;71.98;100099.34;5069824;28;20055;-76
2022/12/26 04:57:56;;;;;;;6.20;4.60;;;12.50;89.70;;;11.61;72.13;100096.22;5064976;28;20045;-76
2022/12/26 05:00:27;;;;;;;7.38;5.43;;;12.60;89.70;;;11.60;71.99;100102.59;5081215;28;20047;-76
2022/12/26 05:11:19;;;;;;;8.13;5.18;;;12.50;89.50;;;11.58;71.78;100107.38;5070424;28;20045;-76
2022/12/26 05:13:47;;;;;;;7.75;5.20;;;12.50;89.50;;;11.59;71.71;100095.66;5086134;28;20047;-76
2022/12/26 05:30:08;;;;;;;10.43;5.55;;;12.50;89.40;;;11.52;71.60;100105.63;5067871;28;20090;-75
2022/12/26 05:35:22;;;;;;;9.57;5.63;;;12.50;89.20;;;11.50;71.68;100107.69;5032874;28;20050;-75
2022/12/26 05:37:49;;;;;;;7.60;4.88;;;12.50;89.30;;;11.51;71.36;100109.31;5068683;28;20040;-75
2022/12/26 05:40:16;;;;;;;6.65;4.53;;;12.60;89.10;;;11.50;71.59;100113.03;5065539;28;20043;-75
2022/12/26 05:42:43;;;;;;;7.38;4.55;;;12.50;89.20;;;11.48;71.28;100115.94;5049105;28;20051;-76
2022/12/26 05:45:11;;;;;;;9.98;4.80;;;12.40;89.00;;;11.51;71.54;100110.13;5054233;28;20675;-75
2022/12/26 05:47:39;;;;;;;8.02;4.80;;;12.50;89.30;;;11.55;71.46;100111.28;5084488;28;20058;-75
2022/12/26 05:50:08;;;;;;;8.73;4.65;;;12.50;89.10;;;11.56;71.29;100115.59;5089125;28;20127;-75
2022/12/26 05:52:35;;;;;;;7.82;4.82;;;12.50;89.10;;;11.53;71.07;100115.25;5069460;28;20210;-76
2022/12/26 05:55:02;;;;;;;7.78;4.68;;;12.50;89.00;;;11.49;71.38;100125.56;5065160;28;20048;-76
2022/12/26 05:57:29;;;;;;;8.55;4.72;;;12.50;89.10;;;11.51;71.15;100120.00;5071295;28;20045;-76
2022/12/26 05:59:57;;;;;;;8.38;5.35;;;12.50;88.90;;;11.54;71.27;100125.69;5087088;28;20500;-75
2022/12/26 06:02:24;;;;;;;7.72;4.95;;;12.50;89.10;;;11.51;71.19;100134.16;5082443;28;20044;-75
2022/12/26 06:04:52;;;;;;;9.13;5.75;;;12.50;88.90;;;11.54;71.17;100116.88;5077934;28;20056;-75
2022/12/26 06:07:19;;;;;;;8.70;5.10;;;12.50;88.90;;;11.50;71.33;100097.81;5072496;28;20036;-75
2022/12/26 06:09:46;;;;;;;7.80;5.10;;;12.50;88.90;;;11.48;71.36;100089.22;5068647;28;20206;-76
2022/12/26 06:12:13;;;;;;;7.30;4.93;;;12.40;89.00;;;11.51;71.19;100085.28;5067946;28;20048;-75
2022/12/26 06:14:40;;;;;;;7.40;5.07;;;12.50;89.10;;;11.52;71.07;100081.59;5073832;28;20055;-76
2022/12/26 06:17:08;;;;;;;7.65;5.32;;;12.50;88.90;;;11.52;71.21;100090.41;5042002;28;20067;-75
2022/12/26 06:19:35;;;;;;;8.40;4.80;;;12.40;88.80;;;11.52;71.00;100097.59;5066726;28;20051;-75
2022/12/26 06:22:03;;;;;;;9.02;5.20;;;12.50;88.90;;;11.54;71.11;100082.97;5075954;28;20040;-76
2022/12/26 06:24:30;;;;;;;7.60;5.07;;;12.50;88.90;;;11.54;70.99;100077.63;5083434;28;20055;-75
2022/12/26 06:26:57;;;;;;;9.52;5.28;;;12.50;88.70;;;11.51;71.00;100093.28;5088591;28;20046;-75
2022/12/26 06:29:24;;;;;;;9.85;5.65;;;12.50;88.70;;;11.48;71.05;100093.75;5090233;28;20480;-75
2022/12/26 06:31:52;;;;;;;7.93;5.03;;;12.70;88.90;;;11.46;71.05;100079.78;5067904;28;20044;-76
2022/12/26 06:34:19;;;;;;;8.45;4.80;;;12.40;88.70;;;11.50;71.08;100086.31;5085477;28;20040;-75
2022/12/26 06:36:46;;;;;;;9.00;5.10;;;12.50;88.70;;;11.53;71.00;100088.53;5092627;28;20055;-76
2022/12/26 06:39:15;;;;;;;8.38;5.10;;;12.50;88.70;;;11.52;70.70;100093.06;5092829;28;20052;-76
2022/12/26 06:41:42;;;;;;;8.77;6.10;;;12.50;88.50;;;11.46;70.69;100096.63;5061851;28;20044;-77
2022/12/26 06:44:10;;;;;;;8.43;5.68;;;12.40;88.50;;;11.45;70.98;100099.53;5079054;28;20116;-76
2022/12/26 06:46:37;;;;;;;9.85;5.90;;;12.40;88.90;;;11.48;71.00;100094.56;5075271;28;20060;-78
2022/12/26 06:49:06;;;;;;;9.27;5.78;;;12.40;88.70;;;11.51;70.97;100088.75;5072029;28;20049;-77
2022/12/26 06:51:34;;;;;;;9.13;5.63;;;12.50;88.70;;;11.51;70.74;100095.94;5071867;28;20044;-76
2022/12/26 06:54:02;;;;;;;9.23;5.78;;;12.40;88.50;;;11.49;70.88;100093.50;5071151;28;20044;-76
2022/12/26 06:56:33;;;;;;;8.63;6.13;;;12.50;88.70;;;11.48;70.68;100107.09;5079667;28;20055;-76
2022/12/26 06:59:04;;;;;;;8.98;6.15;;;12.40;88.50;;;11.45;71.04;100100.34;5081409;28;20040;-76
2022/12/26 07:01:34;;;;;;;8.05;5.35;;;12.40;88.70;;;11.43;71.10;100112.31;5070024;28;20041;-76
2022/12/26 07:04:03;;;;;;;9.25;5.57;;;12.40;88.70;;;11.41;71.20;100119.72;5071327;28;20123;-76
2022/12/26 07:06:33;;;;;;;9.00;4.88;;;12.40;88.90;;;11.43;71.03;100112.31;5060956;28;20450;-75
2022/12/26 07:09:03;;;;;;;6.25;4.43;;;12.40;88.80;;;11.43;71.08;100112.31;5090256;28;20046;-76
2022/12/26 07:11:35;;;;;;;6.97;4.35;;;12.40;88.90;;;11.43;71.15;100120.31;5091355;28;20040;-76
2022/12/26 07:14:03;;;;;;;7.75;4.22;;;12.60;88.80;;;11.44;71.25;100136.09;5091830;28;20051;-76
2022/12/26 07:16:31;;;;;;;6.97;4.65;;;12.40;88.90;;;11.45;71.28;100147.59;5066933;28;20050;-76
2022/12/26 07:18:58;;;;;;;6.82;4.35;;;12.40;88.90;;;11.46;71.14;100150.03;5069644;28;20496;-76
2022/12/26 07:21:28;;;;;;;7.55;4.53;;;12.40;88.90;;;11.49;71.18;100159.47;5070938;28;20042;-76
2022/12/26 07:23:56;;;;;;;8.73;4.22;;;12.40;88.90;;;11.52;71.10;100140.34;5065658;28;20069;-76
2022/12/26 07:26:25;;;;;;;7.57;4.30;;;12.50;89.00;;;11.54;71.08;100151.59;5079334;28;20048;-75
2022/12/26 07:28:55;;;;;;;7.45;4.93;;;12.50;88.90;;;11.57;70.96;100151.97;5073263;28;20119;-77
2022/12/26 07:31:24;;;;;;;6.95;4.57;;;12.50;88.80;;;11.56;70.99;100152.97;5063632;28;20047;-77
2022/12/26 07:33:55;;;;;;;8.75;5.03;;;12.50;88.70;;;11.56;71.13;100162.84;5071039;28;20044;-77
2022/12/26 07:36:25;;;;;;;8.48;5.30;;;12.50;88.70;;;11.57;71.00;100173.34;5077900;28;20051;-77
2022/12/26 07:38:52;;;;;;;8.05;5.68;;;12.50;88.70;;;11.53;71.22;100169.47;5070689;28;20053;-77
2022/12/26 07:44:07;;;;;;;9.35;5.40;;;12.50;89.10;;;11.46;71.36;100162.56;5032315;28;20587;-76
2022/12/26 07:46:34;;;;;;;9.35;5.53;;;12.50;89.30;;;11.49;71.50;100175.50;5038478;28;20428;-76
2022/12/26 07:49:01;;;;;;;8.30;5.32;;;12.50;89.20;;;11.50;71.55;100177.13;5081143;28;20036;-76
2022/12/26 07:51:29;;;;;;;7.50;4.65;;;12.50;89.30;;;11.46;71.62;100174.06;5090579;28;20046;-76
2022/12/26 07:53:56;;;;;;;9.35;5.47;;;12.50;89.30;;;11.44;71.49;100180.69;5091028;28;20044;-77
2022/12/26 07:56:23;;;;;;;8.85;4.93;;;12.40;89.40;;;11.43;71.58;100177.22;5072451;28;20054;-77
2022/12/26 07:58:51;;;;;;;9.13;5.00;;;12.40;89.30;;;11.41;71.79;100173.94;5087926;28;20054;-76
2022/12/26 08:01:20;;;;;;;8.65;4.97;;;12.40;89.40;;;11.44;71.83;100178.84;5057041;28;20045;-76
2022/12/26 08:03:49;;;;;;;9.98;4.97;;;12.40;89.50;;;11.46;71.80;100181.25;5067162;28;20110;-76
2022/12/26 08:06:17;;;;;;;9.10;4.88;;;12.50;89.50;;;11.49;71.67;100197.66;5041441;28;20053;-76
2022/12/26 08:08:44;;;;;;;8.80;5.13;;;12.50;89.30;;;11.49;71.72;100197.66;5050759;28;20044;-76
2022/12/26 08:11:16;;;;;;;8.10;4.47;;;12.50;89.40;;;11.45;71.65;100190.31;5049619;28;20041;-76
2022/12/26 08:13:44;;;;;;;6.88;4.13;;;12.50;89.50;;;11.42;71.82;100194.28;5072146;28;20055;-76
2022/12/26 08:16:13;;;;;;;7.38;3.78;;;12.40;89.30;;;11.43;71.78;100182.53;5052053;28;20044;-77
2022/12/26 08:18:42;;;;;;;6.45;3.65;;;12.40;89.40;;;11.43;71.62;100197.75;5070096;28;20055;-77
2022/12/26 08:21:11;;;;;;;7.22;3.90;;;12.40;89.20;;;11.45;71.69;100201.00;5077299;28;20051;-76
2022/12/26 08:23:38;;;;;;;6.00;3.30;;;12.50;89.50;;;11.40;71.30;100200.84;5085459;28;20044;-78
2022/12/26 08:26:07;;;;;;;5.25;3.00;;;12.40;89.10;;;11.40;71.62;100198.19;5089568;28;20055;-78
2022/12/26 08:28:34;;;;;;;7.80;2.75;;;12.40;89.30;;;11.42;71.69;100186.25;5078395;28;20041;-78
2022/12/26 08:31:06;;;;;;;6.97;3.40;;;12.40;89.30;;;11.40;71.31;100190.19;5079220;28;20052;-78
2022/12/26 08:33:34;;;;;;;;;;;12.40;89.10;;;11.38;71.35;100187.75;5078632;28;20884;-77
2022/12/26 08:36:05;;;;;;;5.82;2.70;;;12.40;89.10;;;11.41;71.44;100191.81;5069774;28;19921;-78
2022/12/26 08:38:32;;;;;;;8.50;2.30;;;12.40;89.00;;;11.34;70.81;100182.03;5069116;28;20040;-77
2022/12/26 08:40:59;;;;;;;5.60;2.95;;;12.40;88.50;;;11.37;71.29;100185.28;5075079;28;20048;-77
2022/12/26 08:43:26;;;;;;;5.55;2.58;;;12.40;88.80;;;11.37;71.27;100199.47;5069714;28;20047;-77
2022/12/26 08:46:02;;;;;;;5.32;2.78;;;12.40;88.90;;;11.41;71.31;100197.16;5070759;28;20048;-76
2022/12/26 08:48:30;;;;;;;4.50;2.33;;;12.40;88.90;;;11.45;71.24;100193.00;5084273;28;20071;-77
2022/12/26 08:50:59;;;;;;;5.45;2.60;;;12.40;88.90;;;11.44;71.04;100199.38;5079462;28;20047;-76
2022/12/26 08:53:28;;;;;;;5.03;2.30;;;12.40;88.70;;;11.42;71.14;100204.09;5083703;28;20054;-76
2022/12/26 08:55:56;;;;;;;5.07;2.38;;;12.50;88.70;;;11.44;71.14;100202.88;5068173;28;20519;-76
2022/12/26 08:58:23;;;;;;;4.72;1.90;;;12.50;88.70;;;11.42;70.87;100202.28;5069398;28;20048;-76
2022/12/26 09:00:50;;;;;;;4.88;2.08;;;12.50;88.50;;;11.38;70.91;100222.44;5075427;28;20048;-76
2022/12/26 09:03:17;;;;;;;6.25;2.30;;;12.50;88.50;;;11.29;70.51;100226.44;5082128;28;20048;-77
2022/12/26 09:05:45;;;;;;;6.05;1.88;;;12.40;88.10;;;11.29;70.86;100224.59;5089602;28;20491;-77
2022/12/26 09:08:13;;;;;;;4.35;2.03;;;12.30;88.30;;;11.30;71.11;100236.09;5089619;28;20063;-77
2022/12/26 09:10:41;;;;;;;4.93;1.73;;;12.30;88.60;;;11.32;70.99;100221.50;5076339;28;20044;-77
2022/12/26 09:13:09;;;;;;;5.63;2.22;;;12.40;88.30;;;11.31;71.01;100221.69;5064664;28;20527;-76
2022/12/26 09:15:36;;;;;;;3.90;1.90;;;12.40;88.40;;;11.29;70.84;100229.13;5046103;28;20386;-76
2022/12/26 09:18:03;;;;;;;4.95;1.67;;;12.30;88.30;;;11.29;70.89;100235.28;5067319;28;20048;-77
2022/12/26 09:20:30;;;;;;;3.63;1.70;;;12.40;88.40;;;11.31;70.85;100222.50;5068987;28;20044;-76
2022/12/26 09:22:57;;;;;;;5.65;1.60;;;12.30;88.30;;;11.24;69.80;100226.31;5067471;28;20051;-76
2022/12/26 09:25:26;;;;;;;4.72;1.38;;;12.30;87.30;;;11.22;70.27;100239.03;5073217;28;20060;-77
2022/12/26 09:27:54;;;;;;;4.10;1.40;;;12.30;87.90;;;11.15;70.41;100228.44;5058263;28;20048;-76
2022/12/26 09:30:22;;;;;;;5.07;1.48;;;12.20;87.60;;;11.21;70.48;100235.56;5053035;28;20041;-76
2022/12/26 09:32:50;;;;;;;6.55;1.90;;;12.20;87.70;;;11.15;70.16;100231.09;5049120;28;20044;-77
2022/12/26 09:35:17;;;;;;;3.92;1.50;;;12.20;87.50;;;11.17;70.00;100242.38;5056985;28;20124;-76
2022/12/26 09:37:44;;;;;;;6.35;1.33;;;12.20;87.40;;;11.16;70.24;100239.94;5055936;28;20049;-77
2022/12/26 09:40:23;;;;;;;3.40;1.30;;;12.20;87.70;;;11.19;70.39;100251.00;5052859;28;20052;-77
2022/12/26 09:43:08;;;;;;;4.32;1.50;;;12.20;87.80;;;11.19;70.44;100256.31;5057510;28;20058;-76
2022/12/26 09:45:54;;;;;;;5.05;1.63;;;12.20;87.70;;;11.24;70.52;100259.16;5051407;28;20044;-76
2022/12/26 09:48:31;;;;;;;3.13;1.30;;;12.20;88.10;;;11.23;70.02;100256.72;5046023;28;20056;-76
2022/12/26 09:50:59;;;;;;;5.35;1.63;;;12.20;87.30;;;11.25;70.15;100265.31;5050628;28;20037;-76
2022/12/26 09:53:33;;;;;;;5.10;1.42;;;12.20;87.70;;;11.28;70.27;100264.88;5041881;28;20051;-76
2022/12/26 09:56:06;;;;;;;3.75;1.48;;;12.30;88.10;;;11.21;70.48;100261.44;5061854;28;20040;-76
2022/12/26 09:58:43;;;;;;;5.57;1.60;;;12.30;88.00;;;11.20;70.68;100270.47;5056723;28;20039;-76
2022/12/26 10:01:15;;;;;;;3.45;1.70;;;12.30;88.20;;;11.21;70.65;100266.78;5059129;28;20044;-76
2022/12/26 10:03:46;;;;;;;3.08;1.50;;;12.20;88.00;;;11.21;70.52;100278.25;5059555;28;20040;-76
2022/12/26 10:06:16;;;;;;;5.82;1.67;;;12.20;87.70;;;11.24;70.42;100280.50;5067041;28;20037;-76
2022/12/26 10:09:27;;;;;;;5.10;1.60;;;12.20;87.80;;;11.22;70.43;100277.22;5062403;28;20500;-76
2022/12/26 10:12:07;;;;;;;4.43;1.50;;;12.30;87.80;;;11.24;69.95;100269.81;5050040;28;20067;-76
2022/12/26 10:14:47;;;;;;;8.10;1.88;;;12.30;87.40;;;11.29;70.39;100269.97;5064445;28;20123;-77
2022/12/26 10:17:24;;;;;;;3.90;1.70;;;12.20;87.80;;;11.30;70.11;100268.13;5060432;28;20059;-77
2022/12/26 10:20:15;;;;;;;4.82;1.70;;;12.30;87.70;;;11.35;70.13;100273.63;5076929;28;20059;-77
2022/12/26 10:23:11;;;;;;;5.15;1.42;;;12.30;87.50;;;11.34;69.55;100261.31;5063310;28;20045;-76
2022/12/26 10:25:45;;;;;;;3.72;1.33;;;12.30;87.10;;;11.35;69.83;100276.28;5075825;28;20231;-77
2022/12/26 10:28:28;;;;;;;5.22;1.55;;;12.40;87.40;;;11.34;69.57;100262.13;5061592;28;20125;-76
2022/12/26 10:31:01;;;;;;;7.03;1.85;;;12.40;87.00;;;11.33;69.67;100249.00;5065924;28;20076;-77
2022/12/26 10:33:40;;;;;;;6.30;1.83;;;12.40;87.10;;;11.27;69.22;100247.19;5084165;28;20402;-77
2022/12/26 10:36:16;;;;;;;9.25;1.98;;;12.30;86.50;;;11.29;69.53;100245.13;5092421;28;20040;-76
2022/12/26 10:38:46;;;;;;;6.22;1.63;;;12.30;86.90;;;11.31;69.23;100243.88;5092558;28;20051;-77
2022/12/26 10:41:24;;;;;;;4.30;1.75;;;12.30;86.90;;;11.33;69.66;100252.50;5092019;28;20058;-77
2022/12/26 10:43:51;;;;;;;5.25;1.75;;;12.60;87.30;;;11.33;69.44;100254.34;5077187;28;20620;-76
2022/12/26 10:46:51;;;;;;;7.50;1.92;;;12.30;86.90;;;11.35;69.11;100255.75;5053741;28;20069;-76
2022/12/26 10:49:22;;;;;;;5.50;1.58;;;12.30;86.50;;;11.34;69.28;100251.44;5072032;28;20048;-78
2022/12/26 10:51:50;;;;;;;4.05;1.80;;;12.30;86.70;;;11.32;69.58;100245.53;5071502;28;20068;-76
2022/12/26 10:54:19;;;;;;;5.63;1.70;;;12.50;87.20;;;11.31;69.32;100261.75;5063758;28;20052;-77
2022/12/26 10:57:00;;;;;;;6.72;1.85;;;12.40;86.70;;;11.34;69.79;100254.13;5080354;28;20081;-77
2022/12/26 10:59:41;;;;;;;6.78;1.80;;;12.40;87.20;;;11.37;69.49;100247.53;5081110;28;20127;-77
2022/12/26 11:02:24;;;;;;;8.95;2.15;;;12.40;86.90;;;11.37;69.48;100263.56;5062993;28;20633;-77
2022/12/26 11:05:06;;;;;;;6.93;1.73;;;12.40;86.80;;;11.32;69.42;100248.19;5064255;28;20412;-77
2022/12/26 11:07:36;;;;;;;7.07;2.13;;;12.40;86.60;;;11.35;69.17;100247.72;5062527;28;20529;-77
2022/12/26 11:10:07;;;;;;;5.95;1.70;;;12.30;86.50;;;11.33;68.89;100255.16;5057977;28;20404;-77
2022/12/26 11:12:41;;;;;;;10.32;2.10;;;12.30;86.40;;;11.33;68.87;100246.34;5061543;28;20037;-77
2022/12/26 11:15:23;;;;;;;5.43;1.48;;;12.30;86.30;;;11.34;69.15;100251.44;5060149;28;20040;-77
2022/12/26 11:17:53;;;;;;;4.60;1.63;;;12.30;86.70;;;11.32;69.11;100256.19;5066779;28;20046;-77
2022/12/26 11:20:30;;;;;;;4.57;1.50;;;12.30;86.50;;;11.34;68.87;100246.09;5064330;28;20029;-77
2022/12/26 11:23:22;;;;;;;6.80;1.50;;;12.30;86.40;;;11.34;69.16;100254.13;5038911;28;20057;-77
2022/12/26 11:25:52;;;;;;;5.15;1.30;;;12.30;86.70;;;11.28;68.89;100255.00;5048124;28;20163;-78
2022/12/26 11:28:30;;;;;;;5.95;1.65;;;12.30;86.10;;;11.26;68.84;100245.56;5056083;28;20053;-77
2022/12/26 11:31:06;;;;;;;3.83;1.30;;;12.30;86.00;;;11.30;68.88;100249.44;5055854;28;20041;-77
2022/12/26 11:33:45;;;;;;;7.25;1.45;;;12.30;86.20;;;11.31;68.53;100243.06;5053797;28;20460;-77
2022/12/26 11:36:20;;;;;;;4.03;1.45;;;12.30;85.90;;;11.30;68.48;100250.25;5058648;28;20052;-77
2022/12/26 11:38:55;;;;;;;6.13;1.60;;;12.30;85.80;;;11.28;67.91;100257.69;5055419;28;20049;-77
2022/12/26 11:41:40;;;;;;;5.93;1.40;;;12.30;85.40;;;11.33;67.86;100252.50;5058800;28;20127;-77
2022/12/26 11:44:22;;;;;;;6.63;1.50;;;12.30;85.30;;;11.33;68.18;100255.16;5039962;28;20094;-77
2022/12/26 11:46:56;;;;;;;10.68;1.75;;;12.30;85.70;;;11.36;67.93;100251.22;5058929;28;20407;-77
2022/12/26 11:49:33;;;;;;;7.60;1.60;;;12.30;85.40;;;11.35;67.85;100247.72;5058719;28;20135;-77
2022/12/26 11:52:03;;;;;;;5.88;1.50;;;12.30;85.10;;;11.37;67.98;100252.88;5054207;28;20041;-77
2022/12/26 11:54:35;;;;;;;5.57;1.33;;;12.30;85.50;;;11.31;67.70;100259.88;5055758;28;20400;-78
2022/12/26 11:57:20;;;;;;;6.03;1.25;;;12.30;84.90;;;11.33;67.54;100257.81;5041164;28;20053;-78
2022/12/26 11:59:51;;;;;;;4.60;1.20;;;12.40;84.70;;;11.34;67.55;100258.63;5056844;28;20047;-77
2022/12/26 12:02:29;;;;;;;4.75;1.33;;;12.30;84.60;;;11.37;67.67;100252.88;5056294;28;20080;-77
2022/12/26 12:05:06;;;;;;;6.57;1.67;;;12.50;85.00;;;11.37;67.73;100252.88;5058056;28;21448;-78
2022/12/26 12:08:05;;;;;;;6.22;1.63;;;12.30;85.00;;;11.31;67.71;100253.72;5053636;28;20048;-77
2022/12/26 12:11:05;;;;;;;3.80;1.20;;;12.30;85.00;;;11.30;67.63;100255.59;5061616;28;20381;-77
2022/12/26 12:14:02;;;;;;;6.70;2.13;;;12.30;84.90;;;11.33;67.85;100262.34;5058209;28;20052;-77
2022/12/26 12:16:39;;;;;;;7.15;1.83;;;12.30;85.10;;;11.35;67.77;100257.59;5064622;28;20558;-77
2022/12/26 12:19:26;;;;;;;9.63;2.50;;;12.30;85.00;;;11.37;67.41;100260.03;5077898;28;20535;-77
2022/12/26 12:22:19;;;;;;;8.30;2.00;;;12.40;84.60;;;11.33;67.67;100249.00;5083750;28;20058;-77
2022/12/26 12:25:20;;;;;;;7.45;1.30;;;12.30;84.80;;;11.34;66.90;100255.97;5054024;28;20047;-77
2022/12/26 12:27:57;;;;;;;5.47;1.70;;;12.30;84.20;;;11.35;67.67;100261.06;5072570;28;20044;-77
2022/12/26 12:30:32;;;;;;;5.72;1.70;;;12.50;85.00;;;11.39;67.65;100261.47;5064609;28;20040;-77
2022/12/26 12:33:16;;;;;;;5.45;1.40;;;12.40;85.10;;;11.38;67.63;100265.19;5064108;28;20288;-77
2022/12/26 12:36:00;;;;;;;5.65;1.42;;;12.50;84.90;;;11.37;67.82;100262.72;5085215;28;20705;-77
2022/12/26 12:38:33;;;;;;;7.22;2.13;;;12.40;84.90;;;11.35;67.74;100253.06;5063442;28;20431;-77
2022/12/26 12:41:27;;;;;;;4.75;1.70;;;12.40;84.90;;;11.38;66.92;100261.69;5055233;28;20173;-77